createdAt,value
2017-03-26T00:00:02.975Z,95.8
2017-03-26T00:01:05.683Z,95.8
2017-03-26T00:02:08.283Z,95.8
2017-03-26T00:03:10.628Z,95.8
2017-03-26T00:04:13.477Z,95.8
2017-03-26T00:05:15.820Z,95.8
2017-03-26T00:06:18.567Z,95.8
2017-03-26T00:07:21.668Z,95.8
2017-03-26T00:09:26.421Z,95.9
2017-03-26T00:10:28.768Z,95.9
2017-03-26T00:11:31.616Z,95.8
2017-03-26T00:12:34.211Z,95.9
2017-03-26T00:13:36.577Z,95.8
2017-03-26T00:14:39.431Z,95.9
2017-03-26T00:15:41.641Z,95.9
2017-03-26T00:16:44.486Z,95.9
2017-03-26T00:17:47.582Z,95.9
2017-03-26T00:19:52.333Z,95.9
2017-03-26T00:20:54.677Z,95.9
2017-03-26T00:21:57.521Z,95.9
2017-03-26T00:23:00.160Z,95.9
2017-03-26T00:24:02.505Z,95.9
2017-03-26T00:25:05.353Z,95.9
2017-03-26T00:26:07.750Z,95.9
2017-03-26T00:27:10.593Z,95.9
2017-03-26T00:28:13.190Z,95.9
2017-03-26T00:29:15.399Z,95.9
2017-03-26T00:30:18.248Z,95.9
2017-03-26T00:31:20.965Z,95.9
2017-03-26T00:32:23.310Z,95.9
2017-03-26T00:35:31.335Z,95.9
2017-03-26T00:36:33.674Z,95.9
2017-03-26T00:37:36.515Z,95.9
2017-03-26T00:38:38.858Z,95.9
2017-03-26T00:39:41.705Z,95.9
2017-03-26T00:40:44.304Z,95.9
2017-03-26T00:41:46.645Z,95.9
2017-03-26T00:42:49.498Z,95.9
2017-03-26T00:43:51.840Z,95.9
2017-03-26T00:44:54.692Z,95.9
2017-03-26T00:45:57.285Z,95.9
2017-03-26T00:46:59.685Z,95.9
2017-03-26T00:48:02.034Z,95.9
2017-03-26T00:49:04.886Z,95.9
2017-03-26T00:50:07.225Z,95.9
2017-03-26T00:51:10.325Z,95.9
2017-03-26T00:52:12.666Z,95.9
2017-03-26T00:53:15.009Z,95.9
2017-03-26T00:54:17.858Z,95.9
2017-03-26T00:55:20.571Z,95.9
2017-03-26T00:56:23.158Z,95.9
2017-03-26T00:57:25.501Z,95.9
2017-03-26T00:57:56.135Z,95.9
2017-03-26T00:58:28.285Z,95.9
2017-03-26T00:59:30.632Z,95.9
2017-03-26T01:00:33.482Z,95.9
2017-03-26T01:01:36.078Z,95.9
2017-03-26T01:02:38.329Z,95.9
2017-03-26T01:03:41.182Z,95.9
2017-03-26T01:04:43.523Z,95.9
2017-03-26T01:05:46.364Z,95.9
2017-03-26T01:07:51.875Z,95.9
2017-03-26T01:08:54.215Z,95.9
2017-03-26T01:09:56.559Z,95.9
2017-03-26T01:10:59.274Z,95.9
2017-03-26T01:12:01.617Z,95.9
2017-03-26T01:13:04.767Z,95.9
2017-03-26T01:14:06.979Z,95.9
2017-03-26T01:15:09.326Z,95.9
2017-03-26T01:16:12.180Z,95.9
2017-03-26T01:17:14.520Z,95.9
2017-03-26T01:18:17.619Z,95.9
2017-03-26T01:19:19.963Z,95.9
2017-03-26T01:20:22.309Z,95.9
2017-03-26T01:21:25.155Z,95.9
2017-03-26T01:22:27.498Z,95.9
2017-03-26T01:23:30.599Z,95.9
2017-03-26T01:24:32.948Z,95.9
2017-03-26T01:25:35.372Z,95.9
2017-03-26T01:26:37.712Z,95.9
2017-03-26T01:27:40.557Z,95.9
2017-03-26T01:28:43.209Z,95.9
2017-03-26T01:29:45.484Z,95.9
2017-03-26T01:30:48.061Z,95.9
2017-03-26T01:31:50.908Z,95.9
2017-03-26T01:32:53.258Z,95.9
2017-03-26T01:33:56.424Z,95.9
2017-03-26T01:34:58.259Z,95.9
2017-03-26T01:36:01.112Z,95.9
2017-03-26T01:37:03.455Z,95.9
2017-03-26T01:38:06.171Z,95.9
2017-03-26T01:39:09.280Z,95.9
2017-03-26T01:40:11.629Z,95.9
2017-03-26T01:41:13.972Z,95.9
2017-03-26T01:42:16.362Z,95.9
2017-03-26T01:43:19.211Z,95.9
2017-03-26T01:44:21.805Z,95.9
2017-03-26T01:45:24.148Z,95.9
2017-03-26T01:46:26.860Z,95.9
2017-03-26T01:47:29.701Z,95.9
2017-03-26T01:48:31.911Z,95.9
2017-03-26T01:49:35.014Z,95.9
2017-03-26T01:50:37.353Z,95.9
2017-03-26T01:51:39.560Z,95.9
2017-03-26T01:52:42.403Z,95.9
2017-03-26T01:53:44.756Z,95.9
2017-03-26T01:54:47.863Z,95.9
2017-03-26T01:55:50.215Z,95.9
2017-03-26T01:56:52.556Z,95.9
2017-03-26T01:57:55.406Z,95.9
2017-03-26T01:58:57.750Z,95.9
2017-03-26T02:00:00.853Z,95.9
2017-03-26T02:01:03.207Z,95.9
2017-03-26T02:02:05.613Z,95.9
2017-03-26T02:03:07.960Z,95.9
2017-03-26T02:04:10.803Z,95.9
2017-03-26T02:05:13.399Z,95.9
2017-03-26T02:06:15.605Z,95.9
2017-03-26T02:07:18.454Z,95.9
2017-03-26T02:08:21.174Z,95.9
2017-03-26T02:09:23.529Z,95.9
2017-03-26T02:10:25.999Z,95.9
2017-03-26T02:11:28.850Z,95.9
2017-03-26T02:12:31.193Z,95.9
2017-03-26T02:13:34.045Z,95.9
2017-03-26T02:14:36.395Z,95.9
2017-03-26T02:15:39.498Z,95.9
2017-03-26T02:17:44.249Z,95.9
2017-03-26T02:18:46.608Z,95.9
2017-03-26T02:19:49.457Z,95.9
2017-03-26T02:21:54.460Z,95.9
2017-03-26T02:22:56.809Z,95.9
2017-03-26T02:23:59.660Z,95.9
2017-03-26T02:25:02.004Z,95.9
2017-03-26T02:26:04.852Z,95.9
2017-03-26T02:27:07.453Z,95.9
2017-03-26T02:28:09.798Z,95.9
2017-03-26T02:29:12.652Z,95.9
2017-03-26T02:31:17.405Z,96
2017-03-26T02:32:20.505Z,96
2017-03-26T02:33:22.718Z,95.9
2017-03-26T02:34:25.570Z,95.9
2017-03-26T02:35:28.479Z,95.9
2017-03-26T02:36:30.187Z,95.9
2017-03-26T02:37:33.336Z,95.9
2017-03-26T02:38:35.690Z,95.9
2017-03-26T02:39:38.037Z,95.9
2017-03-26T02:40:40.898Z,95.9
2017-03-26T02:41:43.240Z,95.9
2017-03-26T02:43:48.749Z,95.9
2017-03-26T02:44:51.097Z,95.9
2017-03-26T02:45:53.445Z,95.9
2017-03-26T02:46:56.854Z,95.9
2017-03-26T02:47:58.704Z,95.9
2017-03-26T02:49:01.801Z,95.9
2017-03-26T02:50:03.638Z,95.9
2017-03-26T02:51:06.486Z,95.9
2017-03-26T02:53:11.741Z,95.9
2017-03-26T02:54:14.393Z,95.9
2017-03-26T02:55:16.739Z,95.9
2017-03-26T02:56:19.085Z,95.9
2017-03-26T02:57:21.806Z,95.9
2017-03-26T02:58:24.661Z,95.9
2017-03-26T02:59:27.322Z,95.9
2017-03-26T03:00:29.544Z,95.9
2017-03-26T03:01:32.395Z,95.9
2017-03-26T03:02:34.742Z,95.9
2017-03-26T03:03:37.094Z,95.9
2017-03-26T03:04:40.199Z,95.9
2017-03-26T03:05:42.547Z,95.9
2017-03-26T03:06:44.891Z,95.9
2017-03-26T03:07:47.608Z,95.9
2017-03-26T03:08:50.008Z,95.9
2017-03-26T03:09:53.105Z,95.9
2017-03-26T03:10:55.448Z,95.9
2017-03-26T03:11:57.797Z,95.9
2017-03-26T03:13:00.643Z,95.9
2017-03-26T03:14:02.993Z,95.9
2017-03-26T03:15:05.594Z,95.9
2017-03-26T03:16:07.942Z,95.9
2017-03-26T03:17:10.791Z,95.9
2017-03-26T03:18:13.141Z,95.9
2017-03-26T03:19:16.002Z,95.9
2017-03-26T03:20:18.603Z,95.9
2017-03-26T03:22:23.360Z,95.9
2017-03-26T03:23:26.214Z,95.9
2017-03-26T03:24:28.566Z,95.9
2017-03-26T03:25:31.533Z,95.9
2017-03-26T03:26:33.879Z,95.9
2017-03-26T03:27:36.229Z,95.9
2017-03-26T03:28:39.088Z,95.9
2017-03-26T03:29:41.445Z,95.9
2017-03-26T03:30:44.041Z,95.9
2017-03-26T03:31:46.761Z,95.9
2017-03-26T03:32:49.113Z,96
2017-03-26T03:33:51.970Z,96
2017-03-26T03:34:54.321Z,96
2017-03-26T03:35:56.971Z,96
2017-03-26T03:36:59.315Z,96
2017-03-26T03:38:01.901Z,96
2017-03-26T03:39:04.751Z,96
2017-03-26T03:40:07.097Z,96
2017-03-26T03:41:09.701Z,96
2017-03-26T03:42:12.053Z,96
2017-03-26T03:43:14.901Z,96
2017-03-26T03:44:17.249Z,96
2017-03-26T03:45:20.100Z,96
2017-03-26T03:46:22.697Z,96
2017-03-26T03:47:25.046Z,96
2017-03-26T03:48:27.396Z,96
2017-03-26T03:49:30.256Z,96
2017-03-26T03:50:32.598Z,96
2017-03-26T03:51:35.752Z,96
2017-03-26T03:53:40.511Z,96
2017-03-26T03:54:42.857Z,96
2017-03-26T03:55:45.717Z,96
2017-03-26T03:56:48.351Z,96
2017-03-26T03:57:50.707Z,96
2017-03-26T03:58:53.051Z,96
2017-03-26T03:59:55.942Z,96
2017-03-26T04:00:58.158Z,96
2017-03-26T04:02:01.263Z,96
2017-03-26T04:03:03.607Z,96
2017-03-26T04:04:05.959Z,96
2017-03-26T04:05:08.810Z,96
2017-03-26T04:06:11.152Z,96
2017-03-26T04:07:13.749Z,96
2017-03-26T04:09:19.007Z,96
2017-03-26T04:10:21.410Z,96
2017-03-26T04:11:23.750Z,96
2017-03-26T04:12:26.852Z,96
2017-03-26T04:14:31.606Z,96
2017-03-26T04:15:33.957Z,96
2017-03-26T04:16:36.804Z,96
2017-03-26T04:17:39.402Z,96
2017-03-26T04:19:44.210Z,96
2017-03-26T04:20:47.057Z,96
2017-03-26T04:21:49.399Z,96
2017-03-26T04:22:52.559Z,96
2017-03-26T04:23:54.411Z,96
2017-03-26T04:24:57.265Z,96
2017-03-26T04:25:59.611Z,96
2017-03-26T04:27:02.460Z,96
2017-03-26T04:28:05.062Z,96
2017-03-26T04:29:07.278Z,96
2017-03-26T04:30:10.184Z,96
2017-03-26T04:31:12.530Z,96
2017-03-26T04:32:14.875Z,96
2017-03-26T04:33:17.986Z,96
2017-03-26T04:34:20.341Z,96
2017-03-26T04:35:22.691Z,96
2017-03-26T04:36:25.407Z,96
2017-03-26T04:37:27.752Z,96
2017-03-26T04:38:30.851Z,96
2017-03-26T04:39:32.698Z,96
2017-03-26T04:40:35.553Z,96
2017-03-26T04:41:37.899Z,96
2017-03-26T04:42:40.749Z,96
2017-03-26T04:43:43.362Z,96
2017-03-26T04:44:45.582Z,96
2017-03-26T04:45:48.427Z,96
2017-03-26T04:46:50.816Z,96
2017-03-26T04:47:53.170Z,96
2017-03-26T04:48:56.144Z,96
2017-03-26T04:49:58.491Z,96
2017-03-26T04:51:00.708Z,96
2017-03-26T04:52:03.562Z,96
2017-03-26T04:53:06.142Z,96
2017-03-26T04:54:09.158Z,96
2017-03-26T04:55:11.007Z,96
2017-03-26T04:56:13.862Z,96
2017-03-26T04:57:16.207Z,96
2017-03-26T04:58:19.061Z,96
2017-03-26T04:59:21.713Z,96
2017-03-26T05:00:24.064Z,96
2017-03-26T05:01:26.412Z,96
2017-03-26T05:02:29.266Z,96
2017-03-26T05:03:31.616Z,96
2017-03-26T05:04:34.726Z,96
2017-03-26T05:05:36.567Z,96
2017-03-26T05:06:39.414Z,96
2017-03-26T05:07:41.759Z,96
2017-03-26T05:08:44.612Z,96
2017-03-26T05:09:47.261Z,96
2017-03-26T05:10:49.477Z,96
2017-03-26T05:12:54.616Z,96
2017-03-26T05:13:56.976Z,96
2017-03-26T05:15:00.084Z,96
2017-03-26T05:16:02.434Z,96
2017-03-26T05:17:04.923Z,96
2017-03-26T05:18:07.274Z,96
2017-03-26T05:19:10.131Z,96
2017-03-26T05:20:12.732Z,96
2017-03-26T05:21:15.079Z,96.1
2017-03-26T05:22:17.532Z,96.1
2017-03-26T05:23:20.384Z,96.1
2017-03-26T05:24:22.733Z,96.1
2017-03-26T05:25:25.338Z,96.1
2017-03-26T05:26:27.684Z,96.1
2017-03-26T05:27:30.537Z,96.1
2017-03-26T05:28:32.885Z,96.1
2017-03-26T05:29:35.102Z,96.1
2017-03-26T05:30:38.210Z,96.1
2017-03-26T05:31:40.556Z,96.1
2017-03-26T05:32:42.900Z,96.1
2017-03-26T05:33:45.806Z,96.1
2017-03-26T05:34:48.162Z,96.1
2017-03-26T05:35:51.129Z,96.1
2017-03-26T05:36:53.473Z,96.1
2017-03-26T05:37:55.821Z,96.1
2017-03-26T05:38:58.679Z,96.1
2017-03-26T05:40:01.034Z,96.1
2017-03-26T05:41:03.640Z,96.1
2017-03-26T05:42:05.855Z,96.1
2017-03-26T05:43:08.703Z,96.1
2017-03-26T05:44:11.052Z,96.1
2017-03-26T05:45:13.904Z,96.1
2017-03-26T05:46:16.502Z,96.1
2017-03-26T05:47:18.710Z,96.1
2017-03-26T05:48:21.422Z,96.1
2017-03-26T05:49:23.773Z,96.1
2017-03-26T05:50:26.625Z,96.1
2017-03-26T05:51:29.227Z,96.1
2017-03-26T05:52:31.574Z,96.1
2017-03-26T05:53:34.424Z,96.1
2017-03-26T05:54:36.764Z,96.1
2017-03-26T05:56:42.271Z,96.1
2017-03-26T05:57:44.476Z,96.1
2017-03-26T05:58:47.196Z,96.1
2017-03-26T05:59:49.545Z,96.1
2017-03-26T06:01:55.053Z,96.1
2017-03-26T06:02:57.398Z,96.1
2017-03-26T06:03:59.753Z,96.1
2017-03-26T06:05:02.606Z,96.1
2017-03-26T06:06:04.820Z,96.1
2017-03-26T06:07:07.845Z,96.1
2017-03-26T06:08:10.191Z,96.1
2017-03-26T06:09:12.542Z,96.1
2017-03-26T06:11:17.839Z,96
2017-03-26T06:12:20.445Z,96
2017-03-26T06:13:22.796Z,96
2017-03-26T06:14:25.656Z,96
2017-03-26T06:15:28.002Z,96
2017-03-26T06:16:30.850Z,96
2017-03-26T06:17:33.501Z,95.9
2017-03-26T06:18:35.854Z,95.9
2017-03-26T06:19:38.703Z,95.9
2017-03-26T06:20:41.054Z,95.9
2017-03-26T06:21:43.907Z,95.8
2017-03-26T06:22:46.504Z,95.8
2017-03-26T06:23:48.853Z,95.8
2017-03-26T06:24:51.208Z,95.7
2017-03-26T06:25:54.057Z,95.7
2017-03-26T06:26:56.401Z,95.6
2017-03-26T06:27:59.561Z,95.6
2017-03-26T06:29:01.769Z,95.5
2017-03-26T06:30:04.487Z,95.5
2017-03-26T06:31:06.835Z,95.4
2017-03-26T06:32:09.683Z,95.4
2017-03-26T06:33:12.280Z,95.3
2017-03-26T06:34:14.631Z,95.3
2017-03-26T06:37:22.788Z,95.1
2017-03-26T06:38:25.446Z,95
2017-03-26T06:39:27.788Z,94.9
2017-03-26T06:40:30.505Z,94.9
2017-03-26T06:41:32.850Z,94.8
2017-03-26T06:42:35.705Z,94.7
2017-03-26T06:43:38.306Z,94.6
2017-03-26T06:44:40.657Z,94.5
2017-03-26T06:45:43.509Z,94.4
2017-03-26T06:46:45.850Z,94.3
2017-03-26T06:47:48.706Z,94.2
2017-03-26T06:48:51.818Z,94.1
2017-03-26T06:49:54.171Z,93.9
2017-03-26T06:50:56.524Z,93.8
2017-03-26T06:51:59.380Z,93.7
2017-03-26T06:53:01.728Z,93.5
2017-03-26T06:54:04.829Z,93.3
2017-03-26T06:55:07.185Z,93.1
2017-03-26T06:56:09.531Z,92.9
2017-03-26T06:57:12.379Z,92.8
2017-03-26T06:58:14.728Z,92.7
2017-03-26T06:59:17.832Z,92.5
2017-03-26T07:00:20.182Z,92.4
2017-03-26T07:01:23.031Z,92.3
2017-03-26T07:02:25.241Z,92.1
2017-03-26T07:03:28.087Z,92
2017-03-26T07:04:31.057Z,91.8
2017-03-26T07:05:33.270Z,91.7
2017-03-26T07:07:38.526Z,91.3
2017-03-26T07:08:41.243Z,91.1
2017-03-26T07:09:43.706Z,90.9
2017-03-26T07:11:48.964Z,90.4
2017-03-26T07:12:51.548Z,90.2
2017-03-26T07:13:54.403Z,90.1
2017-03-26T07:14:57.424Z,89.9
2017-03-26T07:15:59.770Z,89.8
2017-03-26T07:17:02.117Z,89.8
2017-03-26T07:18:04.972Z,89.7
2017-03-26T07:19:07.827Z,89.6
2017-03-26T07:20:10.427Z,89.6
2017-03-26T07:21:12.662Z,89.6
2017-03-26T07:22:15.507Z,89.6
2017-03-26T07:23:18.228Z,89.5
2017-03-26T07:24:21.504Z,89.6
2017-03-26T07:25:23.789Z,89.6
2017-03-26T07:26:26.130Z,89.6
2017-03-26T07:27:28.976Z,89.7
2017-03-26T07:28:31.320Z,89.7
2017-03-26T07:29:34.167Z,89.7
2017-03-26T07:30:36.818Z,89.7
2017-03-26T07:31:39.162Z,89.7
2017-03-26T07:32:42.012Z,89.7
2017-03-26T07:33:44.857Z,89.6
2017-03-26T07:34:47.249Z,89.7
2017-03-26T07:35:50.400Z,89.7
2017-03-26T07:36:52.745Z,89.7
2017-03-26T07:37:55.094Z,89.6
2017-03-26T07:38:57.946Z,89.5
2017-03-26T07:40:00.796Z,89.5
2017-03-26T07:41:03.265Z,89.4
2017-03-26T07:42:05.980Z,89.4
2017-03-26T07:43:08.324Z,89.4
2017-03-26T07:44:11.042Z,89.4
2017-03-26T07:45:13.894Z,89.4
2017-03-26T07:46:16.994Z,89.4
2017-03-26T07:47:19.341Z,89.3
2017-03-26T07:48:21.693Z,89.4
2017-03-26T07:49:24.541Z,89.3
2017-03-26T07:50:26.756Z,89.5
2017-03-26T07:51:29.856Z,89.6
2017-03-26T07:52:32.572Z,89.8
2017-03-26T07:53:34.923Z,89.9
2017-03-26T07:54:37.777Z,90.1
2017-03-26T07:55:40.628Z,90.2
2017-03-26T07:56:43.219Z,90.3
2017-03-26T07:57:45.567Z,90.3
2017-03-26T07:58:48.417Z,90.3
2017-03-26T07:59:51.267Z,90.4
2017-03-26T08:00:53.608Z,90.4
2017-03-26T08:01:56.727Z,90.4
2017-03-26T08:02:59.073Z,90.4
2017-03-26T08:04:01.917Z,90.4
2017-03-26T08:05:04.262Z,90.4
2017-03-26T08:06:07.112Z,90.5
2017-03-26T08:07:09.759Z,90.5
2017-03-26T08:08:12.101Z,90.5
2017-03-26T08:09:14.947Z,90.5
2017-03-26T08:10:17.802Z,90.6
2017-03-26T08:12:23.310Z,90.7
2017-03-26T08:19:41.846Z,90.9
2017-03-26T08:20:44.203Z,91
2017-03-26T08:21:47.049Z,91
2017-03-26T08:22:49.402Z,91.1
2017-03-26T08:23:52.256Z,91.2
2017-03-26T08:24:55.369Z,91.3
2017-03-26T08:25:57.716Z,91.4
2017-03-26T08:27:00.429Z,91.4
2017-03-26T08:28:02.776Z,91.5
2017-03-26T08:29:05.625Z,91.6
2017-03-26T08:30:08.225Z,91.6
2017-03-26T08:32:13.483Z,91.5
2017-03-26T08:33:16.332Z,91.5
2017-03-26T08:34:18.679Z,91.4
2017-03-26T08:35:21.785Z,91.4
2017-03-26T08:36:24.131Z,91.4
2017-03-26T08:37:26.978Z,91.4
2017-03-26T08:38:29.329Z,91.3
2017-03-26T08:39:32.179Z,91.4
2017-03-26T08:40:35.283Z,91.4
2017-03-26T08:41:37.628Z,91.5
2017-03-26T08:42:39.979Z,91.5
2017-03-26T08:43:42.843Z,91.6
2017-03-26T08:44:45.694Z,91.7
2017-03-26T08:45:48.294Z,91.7
2017-03-26T08:46:50.638Z,91.8
2017-03-26T08:47:53.351Z,91.8
2017-03-26T08:48:56.204Z,91.8
2017-03-26T08:49:58.552Z,91.8
2017-03-26T08:51:01.656Z,91.8
2017-03-26T08:52:04.002Z,91.8
2017-03-26T08:53:06.722Z,91.8
2017-03-26T08:54:09.437Z,91.8
2017-03-26T08:55:12.020Z,91.8
2017-03-26T08:56:15.125Z,91.8
2017-03-26T08:57:17.475Z,91.8
2017-03-26T08:58:19.825Z,91.8
2017-03-26T08:59:22.545Z,91.8
2017-03-26T09:00:25.390Z,91.9
2017-03-26T09:01:28.591Z,91.9
2017-03-26T09:02:30.939Z,92
2017-03-26T09:03:33.185Z,92.1
2017-03-26T09:04:35.899Z,92.2
2017-03-26T09:05:38.754Z,92.3
2017-03-26T09:06:41.772Z,92.4
2017-03-26T09:07:44.119Z,92.4
2017-03-26T09:08:46.610Z,92.5
2017-03-26T09:09:49.465Z,92.5
2017-03-26T09:10:51.813Z,92.6
2017-03-26T09:11:54.910Z,92.7
2017-03-26T09:12:57.255Z,92.7
2017-03-26T09:14:00.107Z,92.7
2017-03-26T09:15:02.447Z,92.8
2017-03-26T09:16:05.155Z,92.8
2017-03-26T09:17:08.268Z,92.9
2017-03-26T09:19:13.527Z,93
2017-03-26T09:20:15.871Z,93
2017-03-26T09:21:18.592Z,93.1
2017-03-26T09:22:21.699Z,93.1
2017-03-26T09:23:24.044Z,93.1
2017-03-26T09:24:26.767Z,93.1
2017-03-26T09:25:29.115Z,93.2
2017-03-26T09:27:34.627Z,93.3
2017-03-26T09:28:37.488Z,93.3
2017-03-26T09:29:39.840Z,93.4
2017-03-26T09:30:42.690Z,93.4
2017-03-26T09:31:45.031Z,93.5
2017-03-26T09:32:48.136Z,93.5
2017-03-26T09:33:50.489Z,93.6
2017-03-26T09:34:53.206Z,93.6
2017-03-26T09:35:56.059Z,93.6
2017-03-26T09:36:58.419Z,93.7
2017-03-26T09:38:01.590Z,93.7
2017-03-26T09:39:03.951Z,93.8
2017-03-26T09:40:06.301Z,93.9
2017-03-26T09:41:09.018Z,93.9
2017-03-26T09:42:11.874Z,93.9
2017-03-26T09:43:14.526Z,93.9
2017-03-26T09:44:16.874Z,93.9
2017-03-26T09:45:19.735Z,93.9
2017-03-26T09:46:22.582Z,94
2017-03-26T09:47:24.931Z,94
2017-03-26T09:49:30.807Z,94.1
2017-03-26T09:50:33.016Z,94.1
2017-03-26T09:51:35.877Z,94.1
2017-03-26T09:52:38.225Z,94.1
2017-03-26T09:53:41.091Z,94.1
2017-03-26T09:54:43.759Z,94.1
2017-03-26T09:55:46.104Z,94.1
2017-03-26T09:56:48.908Z,94.2
2017-03-26T09:57:51.623Z,94.2
2017-03-26T09:58:53.973Z,94.2
2017-03-26T09:59:57.081Z,94.2
2017-03-26T10:00:59.429Z,94.2
2017-03-26T10:02:02.281Z,94.2
2017-03-26T10:03:04.635Z,94.2
2017-03-26T10:05:10.004Z,94.3
2017-03-26T10:06:12.718Z,94.3
2017-03-26T10:09:20.887Z,94.3
2017-03-26T10:10:23.495Z,94.3
2017-03-26T10:11:25.844Z,94.3
2017-03-26T10:12:28.697Z,94.3
2017-03-26T10:13:31.552Z,94.3
2017-03-26T10:14:34.464Z,94.3
2017-03-26T10:15:37.116Z,94.3
2017-03-26T10:16:39.470Z,94.3
2017-03-26T10:17:41.818Z,94.3
2017-03-26T10:18:44.670Z,94.3
2017-03-26T10:19:47.021Z,94.3
2017-03-26T10:20:50.129Z,94.3
2017-03-26T10:21:52.476Z,94.3
2017-03-26T10:22:55.334Z,94.3
2017-03-26T10:23:57.683Z,94.3
2017-03-26T10:25:00.532Z,94.4
2017-03-26T10:26:03.129Z,94.4
2017-03-26T10:27:05.845Z,94.4
2017-03-26T10:28:08.561Z,94.4
2017-03-26T10:29:10.913Z,94.4
2017-03-26T10:30:13.765Z,94.4
2017-03-26T10:31:16.365Z,94.4
2017-03-26T10:32:19.215Z,94.4
2017-03-26T10:33:21.569Z,94.4
2017-03-26T10:34:24.420Z,94.4
2017-03-26T10:35:26.771Z,94.4
2017-03-26T10:36:29.872Z,94.4
2017-03-26T10:38:35.127Z,94.4
2017-03-26T10:39:37.335Z,94.4
2017-03-26T10:40:40.186Z,94.4
2017-03-26T10:41:43.287Z,94.4
2017-03-26T10:42:45.638Z,94.3
2017-03-26T10:43:48.042Z,94.3
2017-03-26T10:44:50.894Z,94.4
2017-03-26T10:46:56.320Z,94.4
2017-03-26T10:47:58.666Z,94.4
2017-03-26T10:49:01.517Z,94.4
2017-03-26T10:50:03.728Z,94.4
2017-03-26T10:51:06.446Z,94.4
2017-03-26T10:52:09.546Z,94.4
2017-03-26T10:53:11.946Z,94.4
2017-03-26T10:54:14.803Z,94.4
2017-03-26T10:55:17.519Z,94.4
2017-03-26T10:56:19.863Z,94.4
2017-03-26T10:57:22.963Z,94.3
2017-03-26T10:58:25.312Z,94.3
2017-03-26T10:59:27.665Z,94.3
2017-03-26T11:00:30.521Z,94.3
2017-03-26T11:01:33.239Z,94.3
2017-03-26T11:02:36.348Z,94.3
2017-03-26T11:03:38.700Z,94.2
2017-03-26T11:04:41.050Z,94.2
2017-03-26T11:05:43.893Z,94.2
2017-03-26T11:06:46.241Z,94.2
2017-03-26T11:07:49.344Z,94.2
2017-03-26T11:08:51.697Z,94.2
2017-03-26T11:09:54.553Z,94.2
2017-03-26T11:10:56.900Z,94.2
2017-03-26T11:11:59.754Z,94.2
2017-03-26T11:13:02.863Z,94.2
2017-03-26T11:14:05.074Z,94.2
2017-03-26T11:15:07.923Z,94.2
2017-03-26T11:16:10.270Z,94.2
2017-03-26T11:17:13.123Z,94.2
2017-03-26T11:18:15.728Z,94.2
2017-03-26T11:19:18.456Z,94.2
2017-03-26T11:20:20.810Z,94.2
2017-03-26T11:21:23.532Z,94.2
2017-03-26T11:22:26.249Z,94.2
2017-03-26T11:23:29.408Z,94.2
2017-03-26T11:24:31.760Z,94.2
2017-03-26T11:25:34.109Z,94.2
2017-03-26T11:26:36.965Z,94.2
2017-03-26T11:27:39.820Z,94.2
2017-03-26T11:28:42.476Z,94.2
2017-03-26T11:29:44.821Z,94.2
2017-03-26T11:30:47.668Z,94.2
2017-03-26T11:31:50.015Z,94.2
2017-03-26T11:32:52.869Z,94.2
2017-03-26T11:33:55.971Z,94.2
2017-03-26T11:34:58.326Z,94.2
2017-03-26T11:36:00.671Z,94.2
2017-03-26T11:37:03.395Z,94.2
2017-03-26T11:38:06.113Z,94.2
2017-03-26T11:39:09.227Z,94.2
2017-03-26T11:40:11.580Z,94.2
2017-03-26T11:42:16.830Z,94.2
2017-03-26T11:43:19.546Z,94.2
2017-03-26T11:44:22.015Z,94.2
2017-03-26T11:45:24.608Z,94.2
2017-03-26T11:46:27.463Z,94.2
2017-03-26T11:47:30.319Z,94.2
2017-03-26T11:48:32.535Z,94.2
2017-03-26T11:49:35.640Z,94.2
2017-03-26T11:50:37.984Z,94.2
2017-03-26T11:51:40.836Z,94.2
2017-03-26T11:52:43.184Z,94.2
2017-03-26T11:53:46.036Z,94.2
2017-03-26T11:54:48.878Z,94.1
2017-03-26T11:55:51.594Z,94.2
2017-03-26T11:56:54.313Z,94.2
2017-03-26T11:57:56.662Z,94.2
2017-03-26T11:58:59.388Z,94.2
2017-03-26T12:00:02.502Z,94.1
2017-03-26T12:01:04.851Z,94.2
2017-03-26T12:02:07.202Z,94.2
2017-03-26T12:03:10.050Z,94.2
2017-03-26T12:05:15.612Z,94.2
2017-03-26T12:06:17.821Z,94.2
2017-03-26T12:07:20.406Z,94.2
2017-03-26T12:08:23.815Z,94.2
2017-03-26T12:09:26.167Z,94.2
2017-03-26T12:10:28.819Z,94.2
2017-03-26T12:11:31.163Z,94.2
2017-03-26T12:12:34.063Z,94.1
2017-03-26T12:13:36.917Z,94.1
2017-03-26T12:14:39.264Z,94.1
2017-03-26T12:15:42.426Z,94.1
2017-03-26T12:16:44.773Z,94.1
2017-03-26T12:17:47.121Z,94.1
2017-03-26T12:18:49.978Z,94.1
2017-03-26T12:19:52.833Z,94.1
2017-03-26T12:20:55.435Z,94.1
2017-03-26T12:21:57.781Z,94.1
2017-03-26T12:23:00.501Z,94.1
2017-03-26T12:24:03.353Z,94.1
2017-03-26T12:25:06.201Z,94.1
2017-03-26T12:26:08.805Z,94.1
2017-03-26T12:28:14.086Z,94.1
2017-03-26T12:29:16.947Z,94.1
2017-03-26T12:30:19.295Z,94.1
2017-03-26T12:31:22.398Z,94.2
2017-03-26T12:32:24.607Z,94.2
2017-03-26T12:33:27.326Z,94.2
2017-03-26T12:34:30.178Z,94.2
2017-03-26T12:35:32.527Z,94.2
2017-03-26T12:36:35.631Z,94.2
2017-03-26T12:37:37.983Z,94.2
2017-03-26T12:38:40.837Z,94.2
2017-03-26T12:39:43.186Z,94.2
2017-03-26T12:40:46.276Z,94.2
2017-03-26T12:41:48.929Z,94.2
2017-03-26T12:42:51.147Z,94.2
2017-03-26T12:43:54.008Z,94.2
2017-03-26T12:44:56.862Z,94.2
2017-03-26T12:45:59.209Z,94.2
2017-03-26T12:47:02.177Z,94.2
2017-03-26T12:48:04.529Z,94.2
2017-03-26T12:49:07.383Z,94.2
2017-03-26T12:50:10.248Z,94.2
2017-03-26T12:51:12.606Z,94.2
2017-03-26T12:52:15.707Z,94.2
2017-03-26T12:53:18.104Z,94.2
2017-03-26T12:54:20.961Z,94.2
2017-03-26T12:55:23.178Z,94.2
2017-03-26T12:56:26.028Z,94.2
2017-03-26T12:57:29.133Z,94.2
2017-03-26T12:58:31.354Z,94.2
2017-03-26T12:59:34.213Z,94.2
2017-03-26T13:00:36.566Z,94.2
2017-03-26T13:01:39.420Z,94.2
2017-03-26T13:02:42.535Z,94.2
2017-03-26T13:03:44.891Z,94.2
2017-03-26T13:04:47.240Z,94.2
2017-03-26T13:06:52.876Z,94.2
2017-03-26T13:07:55.977Z,94.2
2017-03-26T13:08:58.191Z,94.2
2017-03-26T13:10:00.910Z,94.2
2017-03-26T13:11:03.757Z,94.2
2017-03-26T13:12:06.111Z,94.2
2017-03-26T13:13:09.210Z,94.2
2017-03-26T13:14:11.563Z,94.2
2017-03-26T13:15:14.157Z,94.2
2017-03-26T13:16:16.883Z,94.2
2017-03-26T13:17:19.743Z,94.2
2017-03-26T13:18:22.390Z,94.2
2017-03-26T13:19:24.602Z,94.2
2017-03-26T13:20:27.456Z,94.2
2017-03-26T13:21:30.301Z,94.2
2017-03-26T13:22:33.013Z,94.2
2017-03-26T13:23:35.617Z,94.2
2017-03-26T13:24:38.472Z,94.2
2017-03-26T13:25:40.822Z,94.2
2017-03-26T13:26:43.672Z,94.2
2017-03-26T13:27:46.522Z,94.2
2017-03-26T13:28:49.170Z,94.2
2017-03-26T13:29:51.524Z,94.2
2017-03-26T13:30:54.373Z,94.2
2017-03-26T13:31:57.224Z,94.2
2017-03-26T13:32:59.576Z,94.2
2017-03-26T13:34:02.541Z,94.2
2017-03-26T13:35:04.894Z,94.2
2017-03-26T13:36:07.750Z,94.2
2017-03-26T13:37:10.601Z,94.2
2017-03-26T13:38:12.959Z,94.2
2017-03-26T13:39:16.063Z,94.3
2017-03-26T13:40:18.409Z,94.3
2017-03-26T13:41:21.122Z,94.2
2017-03-26T13:42:23.984Z,94.2
2017-03-26T13:43:26.567Z,94.2
2017-03-26T13:44:29.455Z,94.2
2017-03-26T13:45:31.669Z,94.2
2017-03-26T13:46:34.516Z,94.2
2017-03-26T13:47:37.365Z,94.2
2017-03-26T13:48:39.712Z,94.2
2017-03-26T13:49:42.817Z,94.2
2017-03-26T13:50:45.167Z,94.2
2017-03-26T13:51:48.022Z,94.2
2017-03-26T13:52:50.373Z,94.2
2017-03-26T13:53:53.225Z,94.2
2017-03-26T13:54:56.328Z,94.2
2017-03-26T13:55:58.678Z,94.2
2017-03-26T13:57:01.026Z,94.2
2017-03-26T13:58:03.872Z,94.2
2017-03-26T13:59:06.728Z,94.2
2017-03-26T14:00:09.378Z,94.2
2017-03-26T14:01:11.728Z,94.2
2017-03-26T14:02:14.576Z,94.2
2017-03-26T14:03:17.435Z,94.2
2017-03-26T14:04:19.784Z,94.2
2017-03-26T14:05:22.802Z,94.2
2017-03-26T14:06:25.514Z,94.2
2017-03-26T14:07:27.861Z,94.2
2017-03-26T14:08:30.574Z,94.2
2017-03-26T14:09:33.436Z,94.2
2017-03-26T14:10:36.585Z,94.2
2017-03-26T14:11:38.932Z,94.2
2017-03-26T14:12:41.281Z,94.1
2017-03-26T14:13:44.131Z,94.2
2017-03-26T14:14:46.977Z,94.1
2017-03-26T14:15:49.571Z,94.2
2017-03-26T14:16:52.420Z,94.2
2017-03-26T14:17:54.633Z,94.2
2017-03-26T14:18:57.353Z,94.2
2017-03-26T14:20:00.204Z,94.2
2017-03-26T14:21:03.345Z,94.2
2017-03-26T14:22:05.559Z,94.2
2017-03-26T14:23:08.405Z,94.2
2017-03-26T14:24:10.790Z,94.2
2017-03-26T14:25:13.638Z,94.2
2017-03-26T14:26:16.744Z,94.2
2017-03-26T14:27:18.952Z,94.2
2017-03-26T14:28:21.664Z,94.2
2017-03-26T14:29:24.383Z,94.3
2017-03-26T14:30:27.240Z,94.3
2017-03-26T14:32:32.473Z,94.3
2017-03-26T14:33:35.330Z,94.3
2017-03-26T14:34:37.678Z,94.3
2017-03-26T14:35:40.531Z,94.3
2017-03-26T14:36:43.381Z,94.4
2017-03-26T14:37:46.044Z,94.4
2017-03-26T14:38:48.761Z,94.4
2017-03-26T14:39:50.978Z,94.4
2017-03-26T14:40:53.826Z,94.4
2017-03-26T14:44:02.164Z,94.4
2017-03-26T14:45:04.511Z,94.4
2017-03-26T14:46:07.228Z,94.4
2017-03-26T14:47:09.943Z,94.4
2017-03-26T14:48:12.667Z,94.4